createdAt,value
2018-07-16T00:00:35.872Z,1010.91
2018-07-16T00:01:36.082Z,1010.87
2018-07-16T00:02:35.693Z,1010.87
2018-07-16T00:03:35.590Z,1010.87
2018-07-16T00:04:35.495Z,1010.86
2018-07-16T00:05:35.404Z,1010.90
2018-07-16T00:06:35.303Z,1010.87
2018-07-16T00:07:35.212Z,1010.90
2018-07-16T00:08:35.116Z,1010.90
2018-07-16T00:09:35.013Z,1010.91
2018-07-16T00:10:34.925Z,1010.87
2018-07-16T00:11:34.822Z,1010.85
2018-07-16T00:12:34.735Z,1010.86
2018-07-16T00:13:34.645Z,1010.83
2018-07-16T00:14:34.598Z,1010.87
2018-07-16T00:15:34.450Z,1010.84
2018-07-16T00:16:34.356Z,1010.84
2018-07-16T00:17:34.255Z,1010.83
2018-07-16T00:18:34.158Z,1010.89
2018-07-16T00:19:34.068Z,1010.86
2018-07-16T00:20:33.968Z,1010.86
2018-07-16T00:21:33.878Z,1010.84
2018-07-16T00:22:33.773Z,1010.82
2018-07-16T00:23:33.682Z,1010.80
2018-07-16T00:24:33.596Z,1010.82
2018-07-16T00:25:33.492Z,1010.78
2018-07-16T00:26:33.400Z,1010.83
2018-07-16T00:27:33.307Z,1010.83
2018-07-16T00:28:33.200Z,1010.81
2018-07-16T00:29:33.115Z,1010.82
2018-07-16T00:30:33.013Z,1010.82
2018-07-16T00:31:32.920Z,1010.80
2018-07-16T00:32:32.826Z,1010.75
2018-07-16T00:33:32.728Z,1010.75
2018-07-16T00:34:32.646Z,1010.71
2018-07-16T00:35:32.545Z,1010.73
2018-07-16T00:36:32.443Z,1010.67
2018-07-16T00:37:32.352Z,1010.67
2018-07-16T00:38:32.243Z,1010.69
2018-07-16T00:39:32.152Z,1010.72
2018-07-16T00:40:32.064Z,1010.72
2018-07-16T00:41:31.961Z,1010.74
2018-07-16T00:42:31.874Z,1010.71
2018-07-16T00:43:31.782Z,1010.68
2018-07-16T00:44:31.674Z,1010.68
2018-07-16T00:45:31.585Z,1010.71
2018-07-16T00:46:31.736Z,1010.71
2018-07-16T00:47:31.393Z,1010.68
2018-07-16T00:48:31.303Z,1010.72
2018-07-16T00:49:31.208Z,1010.71
2018-07-16T00:50:31.102Z,1010.72
2018-07-16T00:51:31.001Z,1010.69
2018-07-16T00:52:30.913Z,1010.71
2018-07-16T00:53:30.822Z,1010.70
2018-07-16T00:54:30.716Z,1010.68
2018-07-16T00:55:30.626Z,1010.68
2018-07-16T00:56:30.586Z,1010.70
2018-07-16T00:57:30.451Z,1010.72
2018-07-16T00:58:30.344Z,1010.68
2018-07-16T00:59:30.240Z,1010.69
2018-07-16T01:00:30.144Z,1010.68
2018-07-16T01:01:30.055Z,1010.68
2018-07-16T01:02:29.955Z,1010.65
2018-07-16T01:03:29.864Z,1010.69
2018-07-16T01:04:29.756Z,1010.65
2018-07-16T01:05:29.665Z,1010.61
2018-07-16T01:06:29.876Z,1010.56
2018-07-16T01:07:29.473Z,1010.61
2018-07-16T01:08:29.387Z,1010.58
2018-07-16T01:09:29.284Z,1010.61
2018-07-16T01:10:29.186Z,1010.60
2018-07-16T01:11:29.096Z,1010.63
2018-07-16T01:12:28.997Z,1010.60
2018-07-16T01:13:28.905Z,1010.57
2018-07-16T01:14:28.804Z,1010.53
2018-07-16T01:15:28.714Z,1010.57
2018-07-16T01:16:28.619Z,1010.58
2018-07-16T01:17:28.515Z,1010.58
2018-07-16T01:18:28.426Z,1010.57
2018-07-16T01:19:28.323Z,1010.54
2018-07-16T01:20:28.227Z,1010.51
2018-07-16T01:21:28.126Z,1010.54
2018-07-16T01:22:28.036Z,1010.49
2018-07-16T01:23:27.945Z,1010.49
2018-07-16T01:24:27.868Z,1010.50
2018-07-16T01:25:27.756Z,1010.51
2018-07-16T01:26:27.646Z,1010.47
2018-07-16T01:27:27.554Z,1010.50
2018-07-16T01:28:27.468Z,1010.46
2018-07-16T01:29:27.365Z,1010.52
2018-07-16T01:30:27.276Z,1010.55
2018-07-16T01:31:27.172Z,1010.52
2018-07-16T01:32:27.071Z,1010.54
2018-07-16T01:33:26.986Z,1010.53
2018-07-16T01:34:26.887Z,1010.55
2018-07-16T01:35:26.798Z,1010.56
2018-07-16T01:36:26.690Z,1010.53
2018-07-16T01:37:26.599Z,1010.53
2018-07-16T01:38:26.493Z,1010.57
2018-07-16T01:39:26.402Z,1010.57
2018-07-16T01:40:26.315Z,1010.55
2018-07-16T01:41:26.214Z,1010.58
2018-07-16T01:42:26.119Z,1010.59
2018-07-16T01:43:26.016Z,1010.59
2018-07-16T01:44:25.930Z,1010.58
2018-07-16T01:45:25.827Z,1010.62
2018-07-16T01:46:25.735Z,1010.59
2018-07-16T01:47:25.642Z,1010.61
2018-07-16T01:48:25.536Z,1010.57
2018-07-16T01:49:25.451Z,1010.59
2018-07-16T01:50:25.345Z,1010.58
2018-07-16T01:51:25.255Z,1010.56
2018-07-16T01:52:25.150Z,1010.61
2018-07-16T01:53:25.058Z,1010.59
2018-07-16T01:54:24.967Z,1010.59
2018-07-16T01:55:24.877Z,1010.58
2018-07-16T01:56:24.778Z,1010.56
2018-07-16T01:57:24.674Z,1010.56
2018-07-16T01:58:24.577Z,1010.59
2018-07-16T01:59:24.475Z,1010.57
2018-07-16T02:00:24.387Z,1010.58
2018-07-16T02:01:24.283Z,1010.60
2018-07-16T02:02:24.196Z,1010.60
2018-07-16T02:03:24.105Z,1010.56
2018-07-16T02:04:24.000Z,1010.61
2018-07-16T02:05:23.918Z,1010.62
2018-07-16T02:06:23.810Z,1010.58
2018-07-16T02:07:23.717Z,1010.57
2018-07-16T02:08:23.609Z,1010.55
2018-07-16T02:09:23.517Z,1010.57
2018-07-16T02:10:23.412Z,1010.61
2018-07-16T02:11:23.322Z,1010.59
2018-07-16T02:12:23.222Z,1010.55
2018-07-16T02:13:23.131Z,1010.58
2018-07-16T02:14:23.039Z,1010.58
2018-07-16T02:15:22.937Z,1010.62
2018-07-16T02:16:22.849Z,1010.59
2018-07-16T02:17:22.750Z,1010.59
2018-07-16T02:18:22.653Z,1010.60
2018-07-16T02:19:22.551Z,1010.60
2018-07-16T02:20:22.454Z,1010.58
2018-07-16T02:21:22.351Z,1010.58
2018-07-16T02:22:22.264Z,1010.58
2018-07-16T02:23:22.158Z,1010.54
2018-07-16T02:24:22.070Z,1010.55
2018-07-16T02:25:21.985Z,1010.57
2018-07-16T02:26:21.878Z,1010.51
2018-07-16T02:27:21.788Z,1010.52
2018-07-16T02:28:21.680Z,1010.53
2018-07-16T02:29:21.592Z,1010.56
2018-07-16T02:30:21.495Z,1010.53
2018-07-16T02:31:21.396Z,1010.54
2018-07-16T02:32:21.289Z,1010.55
2018-07-16T02:33:21.200Z,1010.53
2018-07-16T02:34:21.098Z,1010.53
2018-07-16T02:35:21.007Z,1010.49
2018-07-16T02:36:20.909Z,1010.49
2018-07-16T02:37:20.817Z,1010.44
2018-07-16T02:38:20.712Z,1010.45
2018-07-16T02:39:20.623Z,1010.50
2018-07-16T02:40:20.521Z,1010.45
2018-07-16T02:41:20.429Z,1010.49
2018-07-16T02:42:20.337Z,1010.49
2018-07-16T02:43:20.234Z,1010.45
2018-07-16T02:44:20.138Z,1010.44
2018-07-16T02:45:20.036Z,1010.48
2018-07-16T02:46:19.950Z,1010.48
2018-07-16T02:47:19.846Z,1010.45
2018-07-16T02:48:19.752Z,1010.43
2018-07-16T02:49:19.649Z,1010.41
2018-07-16T02:50:19.555Z,1010.46
2018-07-16T02:51:19.452Z,1010.44
2018-07-16T02:52:19.366Z,1010.46
2018-07-16T02:53:19.262Z,1010.45
2018-07-16T02:54:19.167Z,1010.46
2018-07-16T02:55:19.064Z,1010.48
2018-07-16T02:56:19.067Z,1010.44
2018-07-16T02:57:18.876Z,1010.49
2018-07-16T02:58:18.786Z,1010.46
2018-07-16T02:59:18.686Z,1010.49
2018-07-16T03:00:18.588Z,1010.51
2018-07-16T03:01:18.734Z,1010.48
2018-07-16T03:02:18.398Z,1010.47
2018-07-16T03:03:18.304Z,1010.49
2018-07-16T03:04:18.197Z,1010.53
2018-07-16T03:05:18.106Z,1010.50
2018-07-16T03:06:18.005Z,1010.52
2018-07-16T03:07:17.914Z,1010.55
2018-07-16T03:08:17.815Z,1010.51
2018-07-16T03:09:17.725Z,1010.55
2018-07-16T03:10:17.617Z,1010.52
2018-07-16T03:11:17.526Z,1010.56
2018-07-16T03:12:17.458Z,1010.58
2018-07-16T03:13:17.338Z,1010.54
2018-07-16T03:14:17.230Z,1010.55
2018-07-16T03:15:17.142Z,1010.53
2018-07-16T03:16:17.033Z,1010.52
2018-07-16T03:17:16.941Z,1010.52
2018-07-16T03:18:16.844Z,1010.50
2018-07-16T03:19:16.754Z,1010.46
2018-07-16T03:20:16.647Z,1010.50
2018-07-16T03:21:16.555Z,1010.47
2018-07-16T03:22:16.450Z,1010.43
2018-07-16T03:23:16.359Z,1010.47
2018-07-16T03:24:16.260Z,1010.45
2018-07-16T03:25:16.168Z,1010.44
2018-07-16T03:26:16.064Z,1010.49
2018-07-16T03:27:15.973Z,1010.51
2018-07-16T03:28:15.874Z,1010.54
2018-07-16T03:29:15.782Z,1010.51
2018-07-16T03:30:15.677Z,1010.56
2018-07-16T03:31:15.589Z,1010.54
2018-07-16T03:32:15.480Z,1010.53
2018-07-16T03:33:15.387Z,1010.57
2018-07-16T03:34:15.290Z,1010.55
2018-07-16T03:35:15.201Z,1010.54
2018-07-16T03:36:15.093Z,1010.53
2018-07-16T03:37:15.002Z,1010.52
2018-07-16T03:38:14.898Z,1010.55
2018-07-16T03:39:14.806Z,1010.54
2018-07-16T03:40:14.706Z,1010.54
2018-07-16T03:41:14.615Z,1010.53
2018-07-16T03:42:14.509Z,1010.52
2018-07-16T03:43:14.417Z,1010.53
2018-07-16T03:44:14.319Z,1010.53
2018-07-16T03:45:14.227Z,1010.50
2018-07-16T03:46:14.127Z,1010.51
2018-07-16T03:47:14.036Z,1010.55
2018-07-16T03:48:13.941Z,1010.56
2018-07-16T03:49:13.852Z,1010.50
2018-07-16T03:50:13.749Z,1010.51
2018-07-16T03:51:13.895Z,1010.52
2018-07-16T03:52:13.549Z,1010.48
2018-07-16T03:53:13.447Z,1010.52
2018-07-16T03:54:13.358Z,1010.51
2018-07-16T03:55:13.256Z,1010.51
2018-07-16T03:56:13.168Z,1010.53
2018-07-16T03:57:13.064Z,1010.53
2018-07-16T03:58:12.973Z,1010.53
2018-07-16T03:59:12.867Z,1010.52
2018-07-16T04:00:12.780Z,1010.52
2018-07-16T04:01:12.977Z,1010.50
2018-07-16T04:02:12.583Z,1010.48
2018-07-16T04:03:12.494Z,1010.49
2018-07-16T04:04:12.385Z,1010.47
2018-07-16T04:05:12.295Z,1010.44
2018-07-16T04:06:12.198Z,1010.51
2018-07-16T04:07:12.107Z,1010.50
2018-07-16T04:08:11.999Z,1010.50
2018-07-16T04:09:11.910Z,1010.50
2018-07-16T04:10:11.816Z,1010.51
2018-07-16T04:11:11.712Z,1010.50
2018-07-16T04:12:11.626Z,1010.52
2018-07-16T04:13:11.523Z,1010.46
2018-07-16T04:14:11.427Z,1010.46
2018-07-16T04:15:11.348Z,1010.43
2018-07-16T04:16:11.237Z,1010.43
2018-07-16T04:17:11.146Z,1010.43
2018-07-16T04:18:11.045Z,1010.45
2018-07-16T04:19:10.955Z,1010.47
2018-07-16T04:20:10.847Z,1010.47
2018-07-16T04:21:10.756Z,1010.47
2018-07-16T04:22:10.669Z,1010.48
2018-07-16T04:23:10.567Z,1010.50
2018-07-16T04:24:10.473Z,1010.53
2018-07-16T04:25:10.366Z,1010.52
2018-07-16T04:26:10.278Z,1010.54
2018-07-16T04:27:10.191Z,1010.55
2018-07-16T04:28:10.120Z,1010.51
2018-07-16T04:29:09.998Z,1010.53
2018-07-16T04:30:09.899Z,1010.54
2018-07-16T04:31:09.796Z,1010.55
2018-07-16T04:32:09.714Z,1010.59
2018-07-16T04:33:09.619Z,1010.58
2018-07-16T04:34:09.517Z,1010.57
2018-07-16T04:35:09.427Z,1010.54
2018-07-16T04:36:09.320Z,1010.57
2018-07-16T04:37:09.227Z,1010.59
2018-07-16T04:38:09.139Z,1010.56
2018-07-16T04:39:09.048Z,1010.51
2018-07-16T04:40:08.945Z,1010.52
2018-07-16T04:41:08.851Z,1010.51
2018-07-16T04:42:08.761Z,1010.49
2018-07-16T04:43:08.661Z,1010.53
2018-07-16T04:44:08.579Z,1010.47
2018-07-16T04:45:08.482Z,1010.50
2018-07-16T04:46:08.386Z,1010.48
2018-07-16T04:47:08.283Z,1010.45
2018-07-16T04:48:08.195Z,1010.51
2018-07-16T04:49:08.106Z,1010.53
2018-07-16T04:50:08.003Z,1010.46
2018-07-16T04:51:07.908Z,1010.51
2018-07-16T04:52:07.815Z,1010.53
2018-07-16T04:53:07.722Z,1010.47
2018-07-16T04:54:07.639Z,1010.52
2018-07-16T04:55:07.536Z,1010.52
2018-07-16T04:56:07.489Z,1010.53
2018-07-16T04:57:07.350Z,1010.53
2018-07-16T04:58:07.257Z,1010.53
2018-07-16T04:59:07.166Z,1010.57
2018-07-16T05:00:07.078Z,1010.54
2018-07-16T05:01:06.988Z,1010.54
2018-07-16T05:02:06.895Z,1010.51
2018-07-16T05:03:06.797Z,1010.54
2018-07-16T05:04:06.706Z,1010.53
2018-07-16T05:05:06.612Z,1010.51
2018-07-16T05:06:06.524Z,1010.52
2018-07-16T05:07:06.436Z,1010.48
2018-07-16T05:08:06.339Z,1010.44
2018-07-16T05:09:06.246Z,1010.45
2018-07-16T05:10:06.158Z,1010.42
2018-07-16T05:11:06.070Z,1010.46
2018-07-16T05:12:05.978Z,1010.43
2018-07-16T05:13:05.887Z,1010.44
2018-07-16T05:14:05.794Z,1010.41
2018-07-16T05:15:05.701Z,1010.45
2018-07-16T05:16:05.619Z,1010.45
2018-07-16T05:17:05.531Z,1010.45
2018-07-16T05:18:05.501Z,1010.48
2018-07-16T05:19:05.341Z,1010.43
2018-07-16T05:20:05.267Z,1010.43
2018-07-16T05:21:05.176Z,1010.45
2018-07-16T05:22:05.081Z,1010.39
2018-07-16T05:23:04.991Z,1010.47
2018-07-16T05:24:04.902Z,1010.50
2018-07-16T05:25:04.813Z,1010.53
2018-07-16T05:26:04.722Z,1010.52
2018-07-16T05:27:04.633Z,1010.51
2018-07-16T05:28:04.536Z,1010.51
2018-07-16T05:29:04.455Z,1010.54
2018-07-16T05:30:04.365Z,1010.50
2018-07-16T05:31:04.275Z,1010.49
2018-07-16T05:32:04.239Z,1010.48
2018-07-16T05:33:04.094Z,1010.47
2018-07-16T05:34:04.003Z,1010.46
2018-07-16T05:35:03.927Z,1010.39
2018-07-16T05:36:03.837Z,1010.38
2018-07-16T05:37:03.746Z,1010.38
2018-07-16T05:38:03.665Z,1010.41
2018-07-16T05:39:03.564Z,1010.44
2018-07-16T05:40:03.483Z,1010.45
2018-07-16T05:41:03.388Z,1010.46
2018-07-16T05:42:03.306Z,1010.41
2018-07-16T05:43:03.214Z,1010.46
2018-07-16T05:44:03.132Z,1010.43
2018-07-16T05:45:03.041Z,1010.42
2018-07-16T05:46:02.947Z,1010.42
2018-07-16T05:47:02.860Z,1010.40
2018-07-16T05:48:02.783Z,1010.41
2018-07-16T05:49:02.692Z,1010.43
2018-07-16T05:50:02.603Z,1010.39
2018-07-16T05:51:02.519Z,1010.40
2018-07-16T05:52:02.432Z,1010.40
2018-07-16T05:53:02.342Z,1010.39
2018-07-16T05:54:02.265Z,1010.44
2018-07-16T05:55:02.177Z,1010.44
2018-07-16T05:56:02.081Z,1010.39
2018-07-16T05:57:02.001Z,1010.43
2018-07-16T05:58:01.912Z,1010.47
2018-07-16T05:59:01.823Z,1010.45
2018-07-16T06:00:01.740Z,1010.41
2018-07-16T06:01:01.655Z,1010.43
2018-07-16T06:02:01.560Z,1010.40
2018-07-16T06:03:01.482Z,1010.39
2018-07-16T06:04:01.394Z,1010.36
2018-07-16T06:05:01.316Z,1010.35
2018-07-16T06:06:01.222Z,1010.34
2018-07-16T06:07:01.130Z,1010.33
2018-07-16T06:08:01.056Z,1010.33
2018-07-16T06:09:00.966Z,1010.33
2018-07-16T06:10:00.884Z,1010.37
2018-07-16T06:11:00.796Z,1010.38
2018-07-16T06:12:00.700Z,1010.35
2018-07-16T06:13:00.621Z,1010.37
2018-07-16T06:14:00.536Z,1010.39
2018-07-16T06:15:00.459Z,1010.34
2018-07-16T06:16:00.370Z,1010.33
2018-07-16T06:17:00.289Z,1010.31
2018-07-16T06:18:00.191Z,1010.32
2018-07-16T06:19:00.114Z,1010.35
2018-07-16T06:20:00.033Z,1010.34
2018-07-16T06:20:59.952Z,1010.31
2018-07-16T06:21:59.853Z,1010.34
2018-07-16T06:22:59.779Z,1010.30
2018-07-16T06:23:59.693Z,1010.31
2018-07-16T06:24:59.610Z,1010.31
2018-07-16T06:25:59.521Z,1010.30
2018-07-16T06:26:59.447Z,1010.29
2018-07-16T06:27:59.349Z,1010.29
2018-07-16T06:28:59.271Z,1010.27
2018-07-16T06:29:59.181Z,1010.31
2018-07-16T06:30:59.102Z,1010.28
2018-07-16T06:31:59.009Z,1010.31
2018-07-16T06:32:58.930Z,1010.34
2018-07-16T06:33:58.841Z,1010.31
2018-07-16T06:34:58.763Z,1010.36
2018-07-16T06:35:58.678Z,1010.28
2018-07-16T06:36:58.598Z,1010.34
2018-07-16T06:37:58.520Z,1010.34
2018-07-16T06:38:58.428Z,1010.35
2018-07-16T06:39:58.362Z,1010.36
2018-07-16T06:40:58.404Z,1010.32
2018-07-16T06:41:58.176Z,1010.31
2018-07-16T06:42:58.100Z,1010.28
2018-07-16T06:43:58.010Z,1010.31
2018-07-16T06:44:57.932Z,1010.33
2018-07-16T06:45:57.853Z,1010.36
2018-07-16T06:46:57.761Z,1010.36
2018-07-16T06:47:57.687Z,1010.37
2018-07-16T06:48:57.599Z,1010.38
2018-07-16T06:49:57.529Z,1010.39
2018-07-16T06:50:57.436Z,1010.41
2018-07-16T06:51:57.343Z,1010.43
2018-07-16T06:52:57.268Z,1010.44
2018-07-16T06:53:57.190Z,1010.39
2018-07-16T06:54:57.109Z,1010.42
2018-07-16T06:55:57.016Z,1010.43
2018-07-16T06:56:56.937Z,1010.44
2018-07-16T06:57:56.853Z,1010.45
2018-07-16T06:58:56.771Z,1010.42
2018-07-16T06:59:56.698Z,1010.42
2018-07-16T07:00:56.606Z,1010.40
2018-07-16T07:01:56.521Z,1010.42
2018-07-16T07:02:56.444Z,1010.44
2018-07-16T07:03:56.359Z,1010.41
2018-07-16T07:04:56.280Z,1010.43
2018-07-16T07:05:56.203Z,1010.45
2018-07-16T07:06:56.112Z,1010.39
2018-07-16T07:07:56.029Z,1010.38
2018-07-16T07:08:55.950Z,1010.39
2018-07-16T07:09:55.935Z,1010.38
2018-07-16T07:10:55.789Z,1010.40
2018-07-16T07:11:55.704Z,1010.40
2018-07-16T07:12:55.626Z,1010.42
2018-07-16T07:13:55.531Z,1010.39
2018-07-16T07:14:55.453Z,1010.43
2018-07-16T07:15:55.378Z,1010.40
2018-07-16T07:16:55.289Z,1010.42
2018-07-16T07:17:55.210Z,1010.47
2018-07-16T07:18:55.130Z,1010.44
2018-07-16T07:19:55.056Z,1010.48
2018-07-16T07:20:54.969Z,1010.46
2018-07-16T07:21:54.884Z,1010.45
2018-07-16T07:22:54.806Z,1010.40
2018-07-16T07:23:54.723Z,1010.40
2018-07-16T07:24:54.634Z,1010.39
2018-07-16T07:25:54.559Z,1010.41
2018-07-16T07:26:54.481Z,1010.39
2018-07-16T07:27:54.407Z,1010.37
2018-07-16T07:28:54.309Z,1010.42
2018-07-16T07:29:54.230Z,1010.37
2018-07-16T07:30:54.152Z,1010.38
2018-07-16T07:31:54.078Z,1010.39
2018-07-16T07:32:53.988Z,1010.41
2018-07-16T07:33:53.904Z,1010.37
2018-07-16T07:34:53.860Z,1010.38
2018-07-16T07:35:53.757Z,1010.38
2018-07-16T07:36:53.661Z,1010.39
2018-07-16T07:37:53.583Z,1010.37
2018-07-16T07:38:53.506Z,1010.37
2018-07-16T07:39:53.445Z,1010.40
2018-07-16T07:40:53.344Z,1010.41
2018-07-16T07:41:53.257Z,1010.40
2018-07-16T07:42:53.178Z,1010.36
2018-07-16T07:43:53.096Z,1010.40
2018-07-16T07:44:53.017Z,1010.43
2018-07-16T07:45:52.941Z,1010.47
2018-07-16T07:46:52.851Z,1010.44
2018-07-16T07:47:52.775Z,1010.44
2018-07-16T07:48:52.698Z,1010.46
2018-07-16T07:49:52.614Z,1010.48
2018-07-16T07:50:52.534Z,1010.49
2018-07-16T07:51:52.449Z,1010.51
2018-07-16T07:52:52.370Z,1010.50
2018-07-16T07:53:52.294Z,1010.51
2018-07-16T07:54:52.419Z,1010.52
2018-07-16T07:55:52.135Z,1010.51
2018-07-16T07:56:52.054Z,1010.53
2018-07-16T07:57:51.968Z,1010.52
2018-07-16T07:58:51.889Z,1010.46
2018-07-16T07:59:51.806Z,1010.47
2018-07-16T08:00:51.728Z,1010.43
2018-07-16T08:01:51.648Z,1010.44
2018-07-16T08:02:51.558Z,1010.50
2018-07-16T08:03:51.484Z,1010.45
2018-07-16T08:04:51.405Z,1010.46
2018-07-16T08:05:51.328Z,1010.48
2018-07-16T08:06:51.247Z,1010.45
2018-07-16T08:07:51.159Z,1010.41
2018-07-16T08:08:51.081Z,1010.28
2018-07-16T08:09:51.000Z,1010.26
2018-07-16T08:10:50.922Z,1010.20
2018-07-16T08:11:50.829Z,1010.18
2018-07-16T08:12:50.750Z,1010.17
2018-07-16T08:13:50.715Z,1010.15
2018-07-16T08:14:50.596Z,1010.11
2018-07-16T08:15:50.501Z,1010.10
2018-07-16T08:16:50.435Z,1010.08
2018-07-16T08:17:50.354Z,1010.12
2018-07-16T08:18:50.256Z,1010.11
2018-07-16T08:19:50.184Z,1010.08
2018-07-16T08:20:50.105Z,1010.10
2018-07-16T08:21:50.007Z,1010.06
2018-07-16T08:22:49.929Z,1010.03
2018-07-16T08:23:49.842Z,1010.02
2018-07-16T08:24:49.764Z,1010.03
2018-07-16T08:25:49.677Z,1009.99
2018-07-16T08:26:49.596Z,1010.03
2018-07-16T08:27:49.501Z,1010.03
2018-07-16T08:28:49.424Z,1010.01
2018-07-16T08:29:49.336Z,1009.98
2018-07-16T08:30:49.259Z,1010.02
2018-07-16T08:31:49.165Z,1010.09
2018-07-16T08:32:49.073Z,1010.10
2018-07-16T08:33:48.992Z,1010.21
2018-07-16T08:34:48.902Z,1010.27
2018-07-16T08:35:48.827Z,1010.25
2018-07-16T08:36:48.736Z,1010.29
2018-07-16T08:37:48.644Z,1010.27
2018-07-16T08:38:48.565Z,1010.20
2018-07-16T08:39:48.478Z,1010.23
2018-07-16T08:40:48.388Z,1010.26
2018-07-16T08:41:48.294Z,1010.29
2018-07-16T08:42:48.217Z,1010.30
2018-07-16T08:43:48.122Z,1010.33
2018-07-16T08:44:48.031Z,1010.29
2018-07-16T08:45:47.941Z,1010.25
2018-07-16T08:46:47.863Z,1010.28
2018-07-16T08:47:47.788Z,1010.31
2018-07-16T08:48:47.684Z,1010.27
2018-07-16T08:49:47.595Z,1010.31
2018-07-16T08:50:47.529Z,1010.32
2018-07-16T08:51:47.422Z,1010.32
2018-07-16T08:52:47.336Z,1010.31
2018-07-16T08:53:47.245Z,1010.31
2018-07-16T08:54:47.165Z,1010.32
2018-07-16T08:55:47.071Z,1010.31
2018-07-16T08:56:46.981Z,1010.31
2018-07-16T08:57:46.902Z,1010.30
2018-07-16T08:58:46.813Z,1010.30
2018-07-16T08:59:46.739Z,1010.38
2018-07-16T09:00:46.647Z,1010.31
2018-07-16T09:01:46.565Z,1010.34
2018-07-16T09:02:46.473Z,1010.37
2018-07-16T09:03:46.398Z,1010.33
2018-07-16T09:04:46.309Z,1010.34
2018-07-16T09:05:46.228Z,1010.30
2018-07-16T09:06:46.149Z,1010.28
2018-07-16T09:07:46.055Z,1010.31
2018-07-16T09:08:45.975Z,1010.24
2018-07-16T09:09:45.892Z,1010.24
2018-07-16T09:10:45.817Z,1010.21
2018-07-16T09:11:45.737Z,1010.25
2018-07-16T09:12:45.646Z,1010.22
2018-07-16T09:13:45.560Z,1010.21
2018-07-16T09:14:45.481Z,1010.20
2018-07-16T09:15:45.407Z,1010.20
2018-07-16T09:16:45.340Z,1010.20
2018-07-16T09:17:45.237Z,1010.20
2018-07-16T09:18:45.155Z,1010.21
2018-07-16T09:19:45.082Z,1010.24
2018-07-16T09:20:45.004Z,1010.26
2018-07-16T09:21:44.927Z,1010.29
2018-07-16T09:22:44.837Z,1010.24
2018-07-16T09:23:44.752Z,1010.24
2018-07-16T09:24:44.675Z,1010.24
2018-07-16T09:25:44.611Z,1010.22
2018-07-16T09:26:44.521Z,1010.22
2018-07-16T09:27:44.437Z,1010.18
2018-07-16T09:28:44.359Z,1010.07
2018-07-16T09:29:44.283Z,1010.13
2018-07-16T09:30:44.205Z,1010.12
2018-07-16T09:31:44.130Z,1010.17
2018-07-16T09:32:44.047Z,1010.15
2018-07-16T09:33:43.958Z,1010.11
2018-07-16T09:34:43.879Z,1010.10
2018-07-16T09:35:43.806Z,1010.08
2018-07-16T09:36:43.728Z,1010.08
2018-07-16T09:37:43.648Z,1010.08
2018-07-16T09:38:43.569Z,1010.03
2018-07-16T09:39:43.486Z,1010.00
2018-07-16T09:40:43.407Z,1010.03
2018-07-16T09:41:43.335Z,1010.04
2018-07-16T09:42:43.268Z,1010.00
2018-07-16T09:43:43.174Z,1010.00
2018-07-16T09:44:43.096Z,1010.03
2018-07-16T09:45:43.016Z,1010.00
2018-07-16T09:46:42.940Z,1009.97
2018-07-16T09:47:42.863Z,1009.96
2018-07-16T09:48:42.785Z,1009.98
2018-07-16T09:49:42.705Z,1009.95
2018-07-16T09:50:42.627Z,1009.92
2018-07-16T09:51:42.565Z,1009.95
2018-07-16T09:52:42.474Z,1009.96
2018-07-16T09:53:42.394Z,1009.92
2018-07-16T09:54:42.315Z,1009.89
2018-07-16T09:55:42.234Z,1009.88
2018-07-16T09:56:42.155Z,1009.87
2018-07-16T09:57:42.098Z,1009.89
2018-07-16T09:58:42.016Z,1009.86
2018-07-16T09:59:41.933Z,1009.86
2018-07-16T10:00:41.855Z,1009.83
2018-07-16T10:01:41.774Z,1009.80
2018-07-16T10:02:41.696Z,1009.74
2018-07-16T10:03:41.622Z,1009.72
2018-07-16T10:04:41.557Z,1009.72
2018-07-16T10:05:41.461Z,1009.69
2018-07-16T10:06:41.382Z,1009.66
2018-07-16T10:07:41.309Z,1009.70
2018-07-16T10:08:41.232Z,1009.69
2018-07-16T10:09:41.155Z,1009.68
2018-07-16T10:10:41.076Z,1009.71
2018-07-16T10:11:40.994Z,1009.76
2018-07-16T10:12:40.917Z,1009.68
2018-07-16T10:13:40.853Z,1009.69
2018-07-16T10:14:40.761Z,1009.68
2018-07-16T10:15:40.679Z,1009.69
2018-07-16T10:16:40.613Z,1009.71
2018-07-16T10:17:40.538Z,1009.67
2018-07-16T10:18:40.460Z,1009.63
2018-07-16T10:19:40.385Z,1009.65
2018-07-16T10:20:40.386Z,1009.66
2018-07-16T10:21:40.225Z,1009.63
2018-07-16T10:22:40.146Z,1009.55
2018-07-16T10:23:40.071Z,1009.59
2018-07-16T10:24:39.994Z,1009.61
2018-07-16T10:25:39.924Z,1009.58
2018-07-16T10:26:39.847Z,1009.61
2018-07-16T10:27:39.766Z,1009.58
2018-07-16T10:28:39.688Z,1009.60
2018-07-16T10:29:39.616Z,1009.53
2018-07-16T10:30:39.537Z,1009.55
2018-07-16T10:31:39.454Z,1009.55
2018-07-16T10:32:39.388Z,1009.53
2018-07-16T10:33:39.354Z,1009.52
2018-07-16T10:34:39.231Z,1009.53
2018-07-16T10:35:39.155Z,1009.52
2018-07-16T10:36:39.089Z,1009.52
2018-07-16T10:37:39.006Z,1009.52
2018-07-16T10:38:38.928Z,1009.54
2018-07-16T10:39:38.854Z,1009.45
2018-07-16T10:40:38.788Z,1009.44
2018-07-16T10:41:38.712Z,1009.49
2018-07-16T10:42:38.634Z,1009.47
2018-07-16T10:43:38.577Z,1009.48
2018-07-16T10:44:38.486Z,1009.43
2018-07-16T10:45:38.410Z,1009.39
2018-07-16T10:46:38.344Z,1009.41
2018-07-16T10:47:38.266Z,1009.40
2018-07-16T10:48:38.186Z,1009.38
2018-07-16T10:49:38.182Z,1009.40
2018-07-16T10:50:38.040Z,1009.38
2018-07-16T10:51:37.966Z,1009.32
2018-07-16T10:52:37.901Z,1009.34
2018-07-16T10:53:37.822Z,1009.31
2018-07-16T10:54:37.744Z,1009.37
2018-07-16T10:55:37.673Z,1009.38
2018-07-16T10:56:37.595Z,1009.34
2018-07-16T10:57:37.514Z,1009.31
2018-07-16T10:58:37.450Z,1009.15
2018-07-16T10:59:37.375Z,1009.15
2018-07-16T11:00:37.297Z,1009.28
2018-07-16T11:01:37.229Z,1009.31
2018-07-16T11:02:37.150Z,1009.32
2018-07-16T11:03:37.076Z,1009.25
2018-07-16T11:04:36.997Z,1009.24
2018-07-16T11:05:36.931Z,1009.22
2018-07-16T11:06:36.852Z,1009.23
2018-07-16T11:07:36.769Z,1009.22
2018-07-16T11:08:36.692Z,1009.19
2018-07-16T11:09:36.629Z,1009.18
2018-07-16T11:10:36.550Z,1009.20
2018-07-16T11:11:36.468Z,1009.20
2018-07-16T11:12:36.389Z,1009.20
2018-07-16T11:13:36.314Z,1009.17
2018-07-16T11:14:36.235Z,1009.04
2018-07-16T11:15:36.162Z,1009.00
2018-07-16T11:17:36.014Z,1009.02
2018-07-16T11:18:35.933Z,1009.04
2018-07-16T11:19:35.859Z,1009.15
2018-07-16T11:20:35.780Z,1009.16
2018-07-16T11:21:35.706Z,1009.20
2018-07-16T11:22:35.628Z,1009.20
2018-07-16T11:23:35.543Z,1009.16
2018-07-16T11:24:35.465Z,1009.13
2018-07-16T11:25:35.395Z,1009.05
2018-07-16T11:26:35.313Z,1009.01
2018-07-16T11:27:35.233Z,1009.04
2018-07-16T11:28:35.159Z,1009.03
2018-07-16T11:29:35.072Z,1008.98
2018-07-16T11:30:34.993Z,1009.03
2018-07-16T11:31:34.919Z,1008.98
2018-07-16T11:32:34.841Z,1008.99
2018-07-16T11:33:34.762Z,1009.06
2018-07-16T11:34:34.682Z,1009.03
2018-07-16T11:35:34.691Z,1009.01
2018-07-16T11:36:34.530Z,1008.99
2018-07-16T11:37:34.450Z,1008.96
2018-07-16T11:38:34.371Z,1008.89
2018-07-16T11:39:34.289Z,1009.00
2018-07-16T11:40:34.210Z,1008.96
2018-07-16T11:41:34.141Z,1008.94
2018-07-16T11:42:34.058Z,1008.94
2018-07-16T11:43:33.980Z,1008.88
2018-07-16T11:44:33.897Z,1008.87
2018-07-16T11:45:33.822Z,1008.87
2018-07-16T11:46:33.746Z,1008.83
2018-07-16T11:48:33.579Z,1008.79
2018-07-16T11:49:33.493Z,1008.81
2018-07-16T11:50:33.427Z,1008.75
2018-07-16T11:51:33.343Z,1008.80
2018-07-16T11:52:33.264Z,1008.78
2018-07-16T11:53:33.185Z,1008.72
2018-07-16T11:54:33.095Z,1008.76
2018-07-16T11:55:33.012Z,1008.75
2018-07-16T11:56:32.938Z,1008.74
2018-07-16T11:57:32.858Z,1008.77
2018-07-16T11:58:32.767Z,1008.78
2018-07-16T11:59:32.684Z,1008.73
2018-07-16T12:00:32.595Z,1008.77
2018-07-16T12:01:32.518Z,1008.70
2018-07-16T12:02:32.440Z,1008.74
2018-07-16T12:03:32.437Z,1008.72
2018-07-16T12:04:32.275Z,1008.75
2018-07-16T12:05:32.178Z,1008.78
2018-07-16T12:06:32.100Z,1008.79